sensor_id;sensor_type;location;lat;lon;timestamp;P1;durP1;ratioP1;P2;durP2;ratioP2
17631;SDS011;8934;51.194;17.150;2022-10-26T00:00:35;9.00;;;8.10;;
17631;SDS011;8934;51.194;17.150;2022-10-26T00:03:23;10.70;;;8.30;;
17631;SDS011;8934;51.194;17.150;2022-10-26T00:06:11;11.47;;;8.27;;
17631;SDS011;8934;51.194;17.150;2022-10-26T00:09:01;9.53;;;8.33;;
17631;SDS011;8934;51.194;17.150;2022-10-26T00:11:49;11.27;;;8.43;;
17631;SDS011;8934;51.194;17.150;2022-10-26T00:14:38;11.73;;;8.73;;
17631;SDS011;8934;51.194;17.150;2022-10-26T00:17:27;9.70;;;7.73;;
17631;SDS011;8934;51.194;17.150;2022-10-26T00:20:15;9.87;;;8.43;;
17631;SDS011;8934;51.194;17.150;2022-10-26T00:23:02;9.00;;;7.87;;
17631;SDS011;8934;51.194;17.150;2022-10-26T00:25:53;9.23;;;7.40;;
17631;SDS011;8934;51.194;17.150;2022-10-26T00:28:41;8.50;;;7.70;;
17631;SDS011;8934;51.194;17.150;2022-10-26T00:31:29;9.70;;;7.90;;
17631;SDS011;8934;51.194;17.150;2022-10-26T00:34:18;7.37;;;6.67;;
17631;SDS011;8934;51.194;17.150;2022-10-26T00:37:06;12.87;;;8.80;;
17631;SDS011;8934;51.194;17.150;2022-10-26T00:39:54;9.70;;;8.80;;
17631;SDS011;8934;51.194;17.150;2022-10-26T00:42:42;9.20;;;7.93;;
17631;SDS011;8934;51.194;17.150;2022-10-26T00:45:30;12.17;;;8.67;;
17631;SDS011;8934;51.194;17.150;2022-10-26T00:48:20;17.97;;;10.13;;
17631;SDS011;8934;51.194;17.150;2022-10-26T00:51:14;9.80;;;8.90;;
17631;SDS011;8934;51.194;17.150;2022-10-26T00:54:09;12.60;;;9.27;;
17631;SDS011;8934;51.194;17.150;2022-10-26T00:56:58;9.77;;;8.87;;
17631;SDS011;8934;51.194;17.150;2022-10-26T00:59:46;9.93;;;8.37;;
17631;SDS011;8934;51.194;17.150;2022-10-26T01:02:34;9.23;;;8.43;;
17631;SDS011;8934;51.194;17.150;2022-10-26T01:05:22;9.00;;;8.20;;
17631;SDS011;8934;51.194;17.150;2022-10-26T01:08:12;11.13;;;8.20;;
17631;SDS011;8934;51.194;17.150;2022-10-26T01:11:01;8.73;;;7.93;;
17631;SDS011;8934;51.194;17.150;2022-10-26T01:13:50;12.63;;;10.60;;
17631;SDS011;8934;51.194;17.150;2022-10-26T01:16:45;13.13;;;10.27;;
17631;SDS011;8934;51.194;17.150;2022-10-26T01:19:48;11.80;;;10.60;;
17631;SDS011;8934;51.194;17.150;2022-10-26T01:23:06;10.83;;;8.87;;
17631;SDS011;8934;51.194;17.150;2022-10-26T01:26:06;12.20;;;9.87;;
17631;SDS011;8934;51.194;17.150;2022-10-26T01:29:10;10.20;;;9.20;;
17631;SDS011;8934;51.194;17.150;2022-10-26T01:32:14;10.47;;;9.33;;
17631;SDS011;8934;51.194;17.150;2022-10-26T01:35:10;11.53;;;9.83;;
17631;SDS011;8934;51.194;17.150;2022-10-26T01:38:03;10.50;;;9.20;;
17631;SDS011;8934;51.194;17.150;2022-10-26T01:40:57;11.33;;;10.13;;
17631;SDS011;8934;51.194;17.150;2022-10-26T01:43:50;8.97;;;8.17;;
17631;SDS011;8934;51.194;17.150;2022-10-26T01:46:42;10.50;;;9.50;;
17631;SDS011;8934;51.194;17.150;2022-10-26T01:49:35;10.37;;;9.27;;
17631;SDS011;8934;51.194;17.150;2022-10-26T01:52:27;12.33;;;9.83;;
17631;SDS011;8934;51.194;17.150;2022-10-26T02:01:59;9.57;;;8.63;;
17631;SDS011;8934;51.194;17.150;2022-10-26T02:05:12;9.67;;;8.67;;
17631;SDS011;8934;51.194;17.150;2022-10-26T02:08:18;10.47;;;9.30;;
17631;SDS011;8934;51.194;17.150;2022-10-26T02:11:31;10.37;;;9.33;;
17631;SDS011;8934;51.194;17.150;2022-10-26T02:14:27;9.67;;;8.77;;
17631;SDS011;8934;51.194;17.150;2022-10-26T02:17:25;10.07;;;8.27;;
17631;SDS011;8934;51.194;17.150;2022-10-26T02:20:17;8.87;;;7.93;;
17631;SDS011;8934;51.194;17.150;2022-10-26T02:23:08;10.10;;;9.10;;
17631;SDS011;8934;51.194;17.150;2022-10-26T02:25:58;10.30;;;8.80;;
17631;SDS011;8934;51.194;17.150;2022-10-26T02:28:47;9.60;;;8.13;;
17631;SDS011;8934;51.194;17.150;2022-10-26T02:31:36;9.23;;;8.27;;
17631;SDS011;8934;51.194;17.150;2022-10-26T02:34:28;10.13;;;8.00;;
17631;SDS011;8934;51.194;17.150;2022-10-26T02:37:19;11.17;;;8.37;;
17631;SDS011;8934;51.194;17.150;2022-10-26T02:40:10;10.47;;;9.37;;
17631;SDS011;8934;51.194;17.150;2022-10-26T02:43:01;12.87;;;10.33;;
17631;SDS011;8934;51.194;17.150;2022-10-26T02:45:53;10.03;;;8.57;;
17631;SDS011;8934;51.194;17.150;2022-10-26T02:48:45;11.37;;;9.83;;
17631;SDS011;8934;51.194;17.150;2022-10-26T02:51:34;10.77;;;9.60;;
17631;SDS011;8934;51.194;17.150;2022-10-26T02:54:30;10.23;;;9.00;;
17631;SDS011;8934;51.194;17.150;2022-10-26T02:57:29;9.33;;;8.43;;
17631;SDS011;8934;51.194;17.150;2022-10-26T03:00:24;9.40;;;8.40;;
17631;SDS011;8934;51.194;17.150;2022-10-26T03:03:12;9.70;;;8.63;;
17631;SDS011;8934;51.194;17.150;2022-10-26T03:06:01;11.83;;;9.33;;
17631;SDS011;8934;51.194;17.150;2022-10-26T03:08:50;9.67;;;8.67;;
17631;SDS011;8934;51.194;17.150;2022-10-26T03:11:39;9.27;;;8.33;;
17631;SDS011;8934;51.194;17.150;2022-10-26T03:14:27;9.77;;;8.90;;
17631;SDS011;8934;51.194;17.150;2022-10-26T03:17:14;10.43;;;8.40;;
17631;SDS011;8934;51.194;17.150;2022-10-26T03:20:02;11.07;;;8.37;;
17631;SDS011;8934;51.194;17.150;2022-10-26T03:22:50;9.40;;;8.13;;
17631;SDS011;8934;51.194;17.150;2022-10-26T03:25:38;8.97;;;8.17;;
17631;SDS011;8934;51.194;17.150;2022-10-26T03:28:27;11.40;;;9.53;;
17631;SDS011;8934;51.194;17.150;2022-10-26T03:31:15;9.63;;;8.30;;
17631;SDS011;8934;51.194;17.150;2022-10-26T03:34:03;9.77;;;8.67;;
17631;SDS011;8934;51.194;17.150;2022-10-26T03:36:50;10.00;;;8.53;;
17631;SDS011;8934;51.194;17.150;2022-10-26T03:39:38;11.00;;;8.70;;
17631;SDS011;8934;51.194;17.150;2022-10-26T03:42:25;11.57;;;8.70;;
17631;SDS011;8934;51.194;17.150;2022-10-26T03:45:15;12.73;;;8.60;;
17631;SDS011;8934;51.194;17.150;2022-10-26T03:48:03;12.13;;;10.07;;
17631;SDS011;8934;51.194;17.150;2022-10-26T06:47:52;47.87;;;34.63;;
17631;SDS011;8934;51.194;17.150;2022-10-26T06:50:49;56.87;;;35.90;;
17631;SDS011;8934;51.194;17.150;2022-10-26T06:53:40;50.77;;;34.27;;
17631;SDS011;8934;51.194;17.150;2022-10-26T06:56:31;43.93;;;30.53;;
17631;SDS011;8934;51.194;17.150;2022-10-26T06:59:24;44.73;;;30.53;;
17631;SDS011;8934;51.194;17.150;2022-10-26T07:02:18;36.73;;;27.17;;
17631;SDS011;8934;51.194;17.150;2022-10-26T07:05:06;38.17;;;28.23;;
17631;SDS011;8934;51.194;17.150;2022-10-26T07:07:59;40.60;;;29.10;;
17631;SDS011;8934;51.194;17.150;2022-10-26T07:10:49;49.97;;;33.83;;
17631;SDS011;8934;51.194;17.150;2022-10-26T07:13:36;65.03;;;43.83;;
17631;SDS011;8934;51.194;17.150;2022-10-26T07:16:24;49.87;;;34.33;;
17631;SDS011;8934;51.194;17.150;2022-10-26T07:19:12;38.97;;;29.93;;
17631;SDS011;8934;51.194;17.150;2022-10-26T07:22:00;37.03;;;27.67;;
17631;SDS011;8934;51.194;17.150;2022-10-26T07:24:49;36.13;;;27.77;;
17631;SDS011;8934;51.194;17.150;2022-10-26T07:27:38;28.97;;;24.00;;
17631;SDS011;8934;51.194;17.150;2022-10-26T07:30:26;33.13;;;25.13;;
17631;SDS011;8934;51.194;17.150;2022-10-26T07:33:15;40.73;;;26.20;;
17631;SDS011;8934;51.194;17.150;2022-10-26T07:36:04;37.50;;;27.60;;
17631;SDS011;8934;51.194;17.150;2022-10-26T07:38:53;37.40;;;27.42;;
17631;SDS011;8934;51.194;17.150;2022-10-26T07:41:42;29.50;;;24.33;;
17631;SDS011;8934;51.194;17.150;2022-10-26T07:44:31;32.80;;;24.77;;
17631;SDS011;8934;51.194;17.150;2022-10-26T07:47:19;32.83;;;24.85;;
17631;SDS011;8934;51.194;17.150;2022-10-26T07:50:07;35.53;;;26.02;;
17631;SDS011;8934;51.194;17.150;2022-10-26T07:52:57;34.60;;;24.33;;
17631;SDS011;8934;51.194;17.150;2022-10-26T07:55:51;32.00;;;24.23;;
17631;SDS011;8934;51.194;17.150;2022-10-26T07:58:40;30.45;;;25.20;;
17631;SDS011;8934;51.194;17.150;2022-10-26T08:01:31;30.80;;;24.13;;
17631;SDS011;8934;51.194;17.150;2022-10-26T08:04:19;37.45;;;26.67;;
17631;SDS011;8934;51.194;17.150;2022-10-26T08:07:07;29.48;;;22.02;;
17631;SDS011;8934;51.194;17.150;2022-10-26T08:09:55;27.42;;;21.73;;
17631;SDS011;8934;51.194;17.150;2022-10-26T08:12:43;31.33;;;23.60;;
17631;SDS011;8934;51.194;17.150;2022-10-26T08:15:31;27.30;;;21.38;;
17631;SDS011;8934;51.194;17.150;2022-10-26T08:18:20;26.05;;;19.02;;
17631;SDS011;8934;51.194;17.150;2022-10-26T08:21:08;25.35;;;20.85;;
17631;SDS011;8934;51.194;17.150;2022-10-26T08:24:06;27.05;;;20.15;;
17631;SDS011;8934;51.194;17.150;2022-10-26T08:26:54;19.80;;;17.63;;
17631;SDS011;8934;51.194;17.150;2022-10-26T08:29:41;21.35;;;18.08;;
17631;SDS011;8934;51.194;17.150;2022-10-26T08:32:31;19.55;;;17.48;;
17631;SDS011;8934;51.194;17.150;2022-10-26T08:35:18;18.83;;;16.83;;
17631;SDS011;8934;51.194;17.150;2022-10-26T08:38:06;15.77;;;14.13;;
17631;SDS011;8934;51.194;17.150;2022-10-26T08:40:54;16.92;;;14.73;;
17631;SDS011;8934;51.194;17.150;2022-10-26T08:43:44;15.10;;;12.77;;
17631;SDS011;8934;51.194;17.150;2022-10-26T08:46:39;14.00;;;12.30;;
17631;SDS011;8934;51.194;17.150;2022-10-26T08:49:34;13.60;;;12.30;;
17631;SDS011;8934;51.194;17.150;2022-10-26T08:52:29;13.65;;;12.35;;
17631;SDS011;8934;51.194;17.150;2022-10-26T08:55:28;11.68;;;10.68;;
17631;SDS011;8934;51.194;17.150;2022-10-26T08:58:21;11.27;;;10.10;;
17631;SDS011;8934;51.194;17.150;2022-10-26T09:35:32;11.82;;;10.60;;
17631;SDS011;8934;51.194;17.150;2022-10-26T09:38:29;12.13;;;10.93;;
17631;SDS011;8934;51.194;17.150;2022-10-26T09:47:11;12.32;;;10.93;;
17631;SDS011;8934;51.194;17.150;2022-10-26T09:50:14;13.90;;;12.45;;
17631;SDS011;8934;51.194;17.150;2022-10-26T10:24:23;13.25;;;11.57;;
17631;SDS011;8934;51.194;17.150;2022-10-26T10:27:15;13.45;;;12.02;;
17631;SDS011;8934;51.194;17.150;2022-10-26T10:30:18;11.57;;;10.38;;
17631;SDS011;8934;51.194;17.150;2022-10-26T10:35:58;8.88;;;7.95;;
17631;SDS011;8934;51.194;17.150;2022-10-26T10:38:47;11.60;;;7.93;;
17631;SDS011;8934;51.194;17.150;2022-10-26T10:41:35;9.40;;;7.85;;
17631;SDS011;8934;51.194;17.150;2022-10-26T10:44:24;9.70;;;6.50;;
17631;SDS011;8934;51.194;17.150;2022-10-26T10:47:21;8.45;;;7.65;;
17631;SDS011;8934;51.194;17.150;2022-10-26T10:50:14;7.35;;;6.65;;
17631;SDS011;8934;51.194;17.150;2022-10-26T10:53:12;8.20;;;5.93;;
17631;SDS011;8934;51.194;17.150;2022-10-26T10:56:06;6.75;;;6.00;;
17631;SDS011;8934;51.194;17.150;2022-10-26T10:59:24;6.22;;;5.65;;
17631;SDS011;8934;51.194;17.150;2022-10-26T11:05:55;8.07;;;6.15;;
17631;SDS011;8934;51.194;17.150;2022-10-26T11:08:51;8.70;;;6.78;;
17631;SDS011;8934;51.194;17.150;2022-10-26T11:11:44;7.78;;;5.78;;
17631;SDS011;8934;51.194;17.150;2022-10-26T11:14:36;5.63;;;5.13;;
17631;SDS011;8934;51.194;17.150;2022-10-26T11:17:25;6.03;;;4.72;;
17631;SDS011;8934;51.194;17.150;2022-10-26T11:20:17;7.10;;;3.80;;
17631;SDS011;8934;51.194;17.150;2022-10-26T11:23:10;5.95;;;4.13;;
17631;SDS011;8934;51.194;17.150;2022-10-26T11:26:08;5.32;;;4.53;;
17631;SDS011;8934;51.194;17.150;2022-10-26T11:29:00;4.70;;;3.15;;
17631;SDS011;8934;51.194;17.150;2022-10-26T11:31:53;4.30;;;3.55;;
17631;SDS011;8934;51.194;17.150;2022-10-26T11:34:49;3.53;;;2.90;;
17631;SDS011;8934;51.194;17.150;2022-10-26T11:37:43;7.88;;;3.53;;
17631;SDS011;8934;51.194;17.150;2022-10-26T11:40:37;4.13;;;3.17;;
17631;SDS011;8934;51.194;17.150;2022-10-26T11:43:32;4.35;;;3.03;;
17631;SDS011;8934;51.194;17.150;2022-10-26T11:46:25;4.78;;;3.10;;
17631;SDS011;8934;51.194;17.150;2022-10-26T11:49:19;6.20;;;3.17;;
17631;SDS011;8934;51.194;17.150;2022-10-26T11:52:14;3.42;;;2.90;;
17631;SDS011;8934;51.194;17.150;2022-10-26T11:55:07;6.15;;;2.97;;
17631;SDS011;8934;51.194;17.150;2022-10-26T11:57:58;3.65;;;2.70;;
17631;SDS011;8934;51.194;17.150;2022-10-26T12:00:48;3.53;;;2.58;;
17631;SDS011;8934;51.194;17.150;2022-10-26T12:03:42;3.28;;;2.95;;
17631;SDS011;8934;51.194;17.150;2022-10-26T12:06:34;4.55;;;2.80;;
17631;SDS011;8934;51.194;17.150;2022-10-26T12:09:22;2.75;;;2.42;;
17631;SDS011;8934;51.194;17.150;2022-10-26T12:12:20;4.50;;;2.70;;
17631;SDS011;8934;51.194;17.150;2022-10-26T12:15:17;3.30;;;2.47;;
17631;SDS011;8934;51.194;17.150;2022-10-26T12:18:25;4.32;;;2.45;;
17631;SDS011;8934;51.194;17.150;2022-10-26T12:21:40;3.00;;;2.78;;
17631;SDS011;8934;51.194;17.150;2022-10-26T12:24:29;2.65;;;2.25;;
17631;SDS011;8934;51.194;17.150;2022-10-26T12:27:30;2.80;;;2.22;;
17631;SDS011;8934;51.194;17.150;2022-10-26T12:30:24;3.47;;;2.25;;
17631;SDS011;8934;51.194;17.150;2022-10-26T12:33:26;2.33;;;2.03;;
17631;SDS011;8934;51.194;17.150;2022-10-26T12:39:33;3.17;;;1.95;;
17631;SDS011;8934;51.194;17.150;2022-10-26T12:42:28;2.63;;;1.98;;
17631;SDS011;8934;51.194;17.150;2022-10-26T12:45:17;2.88;;;2.40;;
17631;SDS011;8934;51.194;17.150;2022-10-26T12:48:19;2.13;;;1.80;;
17631;SDS011;8934;51.194;17.150;2022-10-26T12:54:31;2.47;;;2.05;;
17631;SDS011;8934;51.194;17.150;2022-10-26T12:57:30;1.70;;;1.60;;
17631;SDS011;8934;51.194;17.150;2022-10-26T13:00:24;1.88;;;1.63;;
17631;SDS011;8934;51.194;17.150;2022-10-26T13:03:17;3.72;;;1.77;;
17631;SDS011;8934;51.194;17.150;2022-10-26T13:06:23;3.67;;;1.90;;
17631;SDS011;8934;51.194;17.150;2022-10-26T13:09:24;1.95;;;1.70;;
17631;SDS011;8934;51.194;17.150;2022-10-26T13:12:15;3.88;;;1.60;;
17631;SDS011;8934;51.194;17.150;2022-10-26T13:15:04;1.75;;;1.65;;
17631;SDS011;8934;51.194;17.150;2022-10-26T13:18:06;2.67;;;1.42;;
17631;SDS011;8934;51.194;17.150;2022-10-26T13:21:02;1.55;;;1.45;;
17631;SDS011;8934;51.194;17.150;2022-10-26T13:23:57;3.58;;;1.38;;
17631;SDS011;8934;51.194;17.150;2022-10-26T13:30:16;2.92;;;1.80;;
17631;SDS011;8934;51.194;17.150;2022-10-26T13:33:23;2.42;;;1.48;;
17631;SDS011;8934;51.194;17.150;2022-10-26T13:36:22;2.85;;;1.90;;
17631;SDS011;8934;51.194;17.150;2022-10-26T13:39:19;1.60;;;1.50;;
17631;SDS011;8934;51.194;17.150;2022-10-26T13:42:11;2.13;;;1.80;;
17631;SDS011;8934;51.194;17.150;2022-10-26T13:45:02;2.75;;;1.65;;
17631;SDS011;8934;51.194;17.150;2022-10-26T13:47:55;6.15;;;2.00;;
17631;SDS011;8934;51.194;17.150;2022-10-26T13:50:51;2.58;;;1.73;;
17631;SDS011;8934;51.194;17.150;2022-10-26T13:53:48;2.58;;;1.58;;
17631;SDS011;8934;51.194;17.150;2022-10-26T13:56:40;2.53;;;1.30;;
17631;SDS011;8934;51.194;17.150;2022-10-26T13:59:36;1.75;;;1.33;;
17631;SDS011;8934;51.194;17.150;2022-10-26T14:02:27;2.50;;;1.50;;
17631;SDS011;8934;51.194;17.150;2022-10-26T14:05:16;2.60;;;1.63;;
17631;SDS011;8934;51.194;17.150;2022-10-26T14:08:04;1.58;;;1.48;;
17631;SDS011;8934;51.194;17.150;2022-10-26T14:10:54;2.50;;;1.55;;
17631;SDS011;8934;51.194;17.150;2022-10-26T14:13:43;1.92;;;1.67;;
17631;SDS011;8934;51.194;17.150;2022-10-26T14:16:32;2.65;;;1.52;;
17631;SDS011;8934;51.194;17.150;2022-10-26T14:19:23;1.40;;;1.30;;
17631;SDS011;8934;51.194;17.150;2022-10-26T14:22:15;3.05;;;1.73;;
17631;SDS011;8934;51.194;17.150;2022-10-26T14:25:16;2.40;;;1.45;;
17631;SDS011;8934;51.194;17.150;2022-10-26T14:28:23;2.50;;;1.60;;
17631;SDS011;8934;51.194;17.150;2022-10-26T14:31:12;1.40;;;1.30;;
17631;SDS011;8934;51.194;17.150;2022-10-26T14:34:08;3.22;;;1.80;;
17631;SDS011;8934;51.194;17.150;2022-10-26T14:36:58;1.73;;;1.55;;
17631;SDS011;8934;51.194;17.150;2022-10-26T14:39:48;2.13;;;1.40;;
17631;SDS011;8934;51.194;17.150;2022-10-26T14:42:37;3.05;;;1.80;;
17631;SDS011;8934;51.194;17.150;2022-10-26T14:45:31;2.35;;;1.50;;
17631;SDS011;8934;51.194;17.150;2022-10-26T14:48:33;1.38;;;1.23;;
17631;SDS011;8934;51.194;17.150;2022-10-26T14:51:24;1.88;;;1.42;;
17631;SDS011;8934;51.194;17.150;2022-10-26T14:54:20;1.85;;;1.75;;
17631;SDS011;8934;51.194;17.150;2022-10-26T14:57:24;3.03;;;1.63;;
17631;SDS011;8934;51.194;17.150;2022-10-26T15:00:18;1.60;;;1.40;;
17631;SDS011;8934;51.194;17.150;2022-10-26T15:03:09;2.38;;;1.40;;
17631;SDS011;8934;51.194;17.150;2022-10-26T15:09:36;1.60;;;1.50;;
17631;SDS011;8934;51.194;17.150;2022-10-26T15:12:27;1.65;;;1.50;;
17631;SDS011;8934;51.194;17.150;2022-10-26T15:18:16;2.83;;;1.80;;
17631;SDS011;8934;51.194;17.150;2022-10-26T15:21:15;2.88;;;2.20;;
17631;SDS011;8934;51.194;17.150;2022-10-26T15:33:08;3.25;;;1.88;;
17631;SDS011;8934;51.194;17.150;2022-10-26T15:36:13;2.88;;;2.15;;
17631;SDS011;8934;51.194;17.150;2022-10-26T15:39:02;4.40;;;2.30;;
17631;SDS011;8934;51.194;17.150;2022-10-26T15:41:50;16.92;;;10.70;;
17631;SDS011;8934;51.194;17.150;2022-10-26T15:44:38;17.10;;;10.68;;
17631;SDS011;8934;51.194;17.150;2022-10-26T15:47:27;14.77;;;10.27;;
17631;SDS011;8934;51.194;17.150;2022-10-26T15:50:20;21.80;;;13.20;;
17631;SDS011;8934;51.194;17.150;2022-10-26T15:53:11;21.08;;;12.45;;
17631;SDS011;8934;51.194;17.150;2022-10-26T15:56:07;19.75;;;14.88;;
17631;SDS011;8934;51.194;17.150;2022-10-26T16:01:48;27.45;;;18.83;;
17631;SDS011;8934;51.194;17.150;2022-10-26T16:04:37;28.10;;;17.60;;
17631;SDS011;8934;51.194;17.150;2022-10-26T16:07:26;24.70;;;19.00;;
17631;SDS011;8934;51.194;17.150;2022-10-26T16:10:16;19.40;;;16.67;;
17631;SDS011;8934;51.194;17.150;2022-10-26T16:13:08;17.85;;;15.88;;
17631;SDS011;8934;51.194;17.150;2022-10-26T16:15:58;16.30;;;14.52;;
17631;SDS011;8934;51.194;17.150;2022-10-26T16:18:51;13.65;;;12.10;;
17631;SDS011;8934;51.194;17.150;2022-10-26T16:22:00;15.77;;;10.75;;
17631;SDS011;8934;51.194;17.150;2022-10-26T16:24:49;11.82;;;10.18;;
17631;SDS011;8934;51.194;17.150;2022-10-26T16:27:37;9.27;;;8.38;;
17631;SDS011;8934;51.194;17.150;2022-10-26T16:30:27;10.00;;;6.43;;
17631;SDS011;8934;51.194;17.150;2022-10-26T16:33:16;7.35;;;6.03;;
17631;SDS011;8934;51.194;17.150;2022-10-26T16:36:04;5.50;;;4.22;;
17631;SDS011;8934;51.194;17.150;2022-10-26T16:38:53;4.20;;;3.53;;
17631;SDS011;8934;51.194;17.150;2022-10-26T16:41:42;4.18;;;3.80;;
17631;SDS011;8934;51.194;17.150;2022-10-26T16:44:30;4.32;;;3.65;;
17631;SDS011;8934;51.194;17.150;2022-10-26T16:47:18;5.38;;;3.33;;
17631;SDS011;8934;51.194;17.150;2022-10-26T16:50:11;4.00;;;3.28;;
17631;SDS011;8934;51.194;17.150;2022-10-26T16:52:59;3.78;;;3.40;;
17631;SDS011;8934;51.194;17.150;2022-10-26T16:55:47;5.03;;;3.42;;
17631;SDS011;8934;51.194;17.150;2022-10-26T16:58:36;5.10;;;3.50;;
17631;SDS011;8934;51.194;17.150;2022-10-26T17:01:24;4.45;;;3.35;;
17631;SDS011;8934;51.194;17.150;2022-10-26T17:04:12;3.42;;;2.88;;
17631;SDS011;8934;51.194;17.150;2022-10-26T17:07:00;3.15;;;2.85;;
17631;SDS011;8934;51.194;17.150;2022-10-26T17:09:48;4.85;;;3.63;;
17631;SDS011;8934;51.194;17.150;2022-10-26T17:12:36;3.67;;;3.33;;
17631;SDS011;8934;51.194;17.150;2022-10-26T17:15:25;5.47;;;4.45;;
17631;SDS011;8934;51.194;17.150;2022-10-26T17:18:14;5.00;;;4.30;;
17631;SDS011;8934;51.194;17.150;2022-10-26T17:21:02;5.18;;;4.22;;
17631;SDS011;8934;51.194;17.150;2022-10-26T17:23:50;5.25;;;4.40;;
17631;SDS011;8934;51.194;17.150;2022-10-26T17:26:37;6.00;;;5.40;;
17631;SDS011;8934;51.194;17.150;2022-10-26T17:29:25;8.52;;;5.38;;
17631;SDS011;8934;51.194;17.150;2022-10-26T17:32:15;6.28;;;5.68;;
17631;SDS011;8934;51.194;17.150;2022-10-26T17:35:04;5.63;;;5.13;;
17631;SDS011;8934;51.194;17.150;2022-10-26T17:37:52;5.93;;;5.32;;
17631;SDS011;8934;51.194;17.150;2022-10-26T17:40:40;5.35;;;4.93;;
17631;SDS011;8934;51.194;17.150;2022-10-26T17:43:31;6.22;;;5.03;;
17631;SDS011;8934;51.194;17.150;2022-10-26T17:46:20;7.00;;;5.47;;
17631;SDS011;8934;51.194;17.150;2022-10-26T17:49:10;5.88;;;5.22;;
17631;SDS011;8934;51.194;17.150;2022-10-26T17:51:58;8.80;;;5.68;;
17631;SDS011;8934;51.194;17.150;2022-10-26T17:54:46;6.72;;;5.85;;
17631;SDS011;8934;51.194;17.150;2022-10-26T17:57:34;6.78;;;6.07;;
17631;SDS011;8934;51.194;17.150;2022-10-26T18:00:22;7.15;;;6.43;;
17631;SDS011;8934;51.194;17.150;2022-10-26T18:03:10;7.20;;;6.53;;
17631;SDS011;8934;51.194;17.150;2022-10-26T18:05:59;7.05;;;6.35;;
17631;SDS011;8934;51.194;17.150;2022-10-26T18:08:47;6.72;;;5.88;;
17631;SDS011;8934;51.194;17.150;2022-10-26T18:11:35;7.05;;;6.55;;
17631;SDS011;8934;51.194;17.150;2022-10-26T18:14:23;7.32;;;6.63;;
17631;SDS011;8934;51.194;17.150;2022-10-26T18:17:11;9.43;;;6.75;;
17631;SDS011;8934;51.194;17.150;2022-10-26T18:19:59;8.07;;;7.25;;
17631;SDS011;8934;51.194;17.150;2022-10-26T18:22:48;8.32;;;7.53;;
17631;SDS011;8934;51.194;17.150;2022-10-26T18:25:36;7.15;;;6.47;;
17631;SDS011;8934;51.194;17.150;2022-10-26T18:28:24;8.15;;;7.03;;
17631;SDS011;8934;51.194;17.150;2022-10-26T18:31:13;7.97;;;7.28;;
17631;SDS011;8934;51.194;17.150;2022-10-26T18:34:02;8.77;;;7.88;;
17631;SDS011;8934;51.194;17.150;2022-10-26T18:36:52;9.70;;;7.55;;
17631;SDS011;8934;51.194;17.150;2022-10-26T18:39:41;8.85;;;8.00;;
17631;SDS011;8934;51.194;17.150;2022-10-26T18:42:29;11.40;;;8.75;;
17631;SDS011;8934;51.194;17.150;2022-10-26T18:45:16;10.43;;;7.80;;
17631;SDS011;8934;51.194;17.150;2022-10-26T18:48:04;12.95;;;8.15;;
17631;SDS011;8934;51.194;17.150;2022-10-26T18:50:52;10.52;;;8.02;;
17631;SDS011;8934;51.194;17.150;2022-10-26T18:53:40;11.45;;;8.10;;
17631;SDS011;8934;51.194;17.150;2022-10-26T18:56:31;10.55;;;8.45;;
17631;SDS011;8934;51.194;17.150;2022-10-26T18:59:18;8.63;;;7.18;;
17631;SDS011;8934;51.194;17.150;2022-10-26T19:02:07;10.80;;;7.90;;
17631;SDS011;8934;51.194;17.150;2022-10-26T19:05:00;16.23;;;8.57;;
17631;SDS011;8934;51.194;17.150;2022-10-26T19:07:48;10.27;;;7.82;;
17631;SDS011;8934;51.194;17.150;2022-10-26T19:10:35;9.35;;;7.00;;
17631;SDS011;8934;51.194;17.150;2022-10-26T19:13:24;8.50;;;7.03;;
17631;SDS011;8934;51.194;17.150;2022-10-26T19:16:13;7.35;;;6.63;;
17631;SDS011;8934;51.194;17.150;2022-10-26T19:19:23;9.60;;;6.45;;
17631;SDS011;8934;51.194;17.150;2022-10-26T19:22:11;11.68;;;7.00;;
17631;SDS011;8934;51.194;17.150;2022-10-26T19:24:59;7.10;;;6.40;;
17631;SDS011;8934;51.194;17.150;2022-10-26T19:27:48;7.80;;;6.68;;
17631;SDS011;8934;51.194;17.150;2022-10-26T19:30:41;7.47;;;6.73;;
17631;SDS011;8934;51.194;17.150;2022-10-26T19:33:29;8.03;;;6.27;;
17631;SDS011;8934;51.194;17.150;2022-10-26T19:36:16;8.03;;;5.80;;
17631;SDS011;8934;51.194;17.150;2022-10-26T19:39:04;6.43;;;5.82;;
17631;SDS011;8934;51.194;17.150;2022-10-26T19:41:52;6.97;;;5.87;;
17631;SDS011;8934;51.194;17.150;2022-10-26T19:44:40;8.20;;;5.67;;
17631;SDS011;8934;51.194;17.150;2022-10-26T19:47:29;6.07;;;5.47;;
17631;SDS011;8934;51.194;17.150;2022-10-26T19:50:17;6.10;;;5.60;;
17631;SDS011;8934;51.194;17.150;2022-10-26T19:53:04;6.87;;;5.97;;
17631;SDS011;8934;51.194;17.150;2022-10-26T19:55:53;9.10;;;6.43;;
17631;SDS011;8934;51.194;17.150;2022-10-26T19:58:43;9.33;;;6.53;;
17631;SDS011;8934;51.194;17.150;2022-10-26T20:01:31;6.57;;;5.87;;
17631;SDS011;8934;51.194;17.150;2022-10-26T20:04:21;6.87;;;5.50;;
17631;SDS011;8934;51.194;17.150;2022-10-26T20:07:09;7.87;;;5.77;;
17631;SDS011;8934;51.194;17.150;2022-10-26T20:09:57;9.27;;;7.63;;
17631;SDS011;8934;51.194;17.150;2022-10-26T20:12:45;15.27;;;9.77;;
17631;SDS011;8934;51.194;17.150;2022-10-26T20:15:33;13.50;;;9.00;;
17631;SDS011;8934;51.194;17.150;2022-10-26T23:15:15;22.53;;;16.93;;
17631;SDS011;8934;51.194;17.150;2022-10-26T23:18:03;28.17;;;18.47;;
17631;SDS011;8934;51.194;17.150;2022-10-26T23:20:50;23.37;;;17.93;;
17631;SDS011;8934;51.194;17.150;2022-10-26T23:23:39;24.93;;;18.17;;
17631;SDS011;8934;51.194;17.150;2022-10-26T23:26:28;21.13;;;17.17;;
17631;SDS011;8934;51.194;17.150;2022-10-26T23:29:17;24.13;;;18.67;;
17631;SDS011;8934;51.194;17.150;2022-10-26T23:32:04;21.23;;;17.17;;
17631;SDS011;8934;51.194;17.150;2022-10-26T23:34:52;22.43;;;17.83;;
17631;SDS011;8934;51.194;17.150;2022-10-26T23:37:40;22.83;;;17.60;;
17631;SDS011;8934;51.194;17.150;2022-10-26T23:40:28;23.80;;;17.40;;
17631;SDS011;8934;51.194;17.150;2022-10-26T23:43:17;21.63;;;16.90;;
17631;SDS011;8934;51.194;17.150;2022-10-26T23:46:05;22.63;;;18.13;;
17631;SDS011;8934;51.194;17.150;2022-10-26T23:48:53;23.60;;;18.23;;
17631;SDS011;8934;51.194;17.150;2022-10-26T23:51:41;24.90;;;18.30;;
17631;SDS011;8934;51.194;17.150;2022-10-26T23:54:28;21.27;;;17.97;;
17631;SDS011;8934;51.194;17.150;2022-10-26T23:57:16;28.80;;;19.47;;
